sensor_id;sensor_type;location;lat;lon;timestamp;P1;durP1;ratioP1;P2;durP2;ratioP2
18879;SDS011;9572;52.378;13.404;2024-03-08T00:01:15;23.10;;;12.53;;
18879;SDS011;9572;52.378;13.404;2024-03-08T00:03:45;27.30;;;12.73;;
18879;SDS011;9572;52.378;13.404;2024-03-08T00:06:12;26.57;;;13.40;;
18879;SDS011;9572;52.378;13.404;2024-03-08T00:08:39;22.37;;;12.57;;
18879;SDS011;9572;52.378;13.404;2024-03-08T00:11:05;26.27;;;13.13;;
18879;SDS011;9572;52.378;13.404;2024-03-08T00:13:33;29.93;;;15.20;;
18879;SDS011;9572;52.378;13.404;2024-03-08T00:16:00;28.23;;;14.47;;
18879;SDS011;9572;52.378;13.404;2024-03-08T00:18:27;32.73;;;16.53;;
18879;SDS011;9572;52.378;13.404;2024-03-08T00:20:55;36.47;;;16.17;;
18879;SDS011;9572;52.378;13.404;2024-03-08T00:23:22;32.13;;;15.47;;
18879;SDS011;9572;52.378;13.404;2024-03-08T00:25:49;33.27;;;16.03;;
18879;SDS011;9572;52.378;13.404;2024-03-08T00:28:16;37.27;;;16.60;;
18879;SDS011;9572;52.378;13.404;2024-03-08T00:30:43;45.70;;;18.07;;
18879;SDS011;9572;52.378;13.404;2024-03-08T00:33:11;42.80;;;19.13;;
18879;SDS011;9572;52.378;13.404;2024-03-08T00:35:38;40.70;;;17.70;;
18879;SDS011;9572;52.378;13.404;2024-03-08T00:38:06;29.63;;;15.93;;
18879;SDS011;9572;52.378;13.404;2024-03-08T00:40:33;36.47;;;17.20;;
18879;SDS011;9572;52.378;13.404;2024-03-08T00:42:59;35.23;;;16.30;;
18879;SDS011;9572;52.378;13.404;2024-03-08T00:45:28;32.27;;;16.40;;
18879;SDS011;9572;52.378;13.404;2024-03-08T00:47:55;32.73;;;16.40;;
18879;SDS011;9572;52.378;13.404;2024-03-08T00:50:22;33.57;;;15.80;;
18879;SDS011;9572;52.378;13.404;2024-03-08T00:52:49;32.43;;;16.90;;
18879;SDS011;9572;52.378;13.404;2024-03-08T00:55:17;57.73;;;24.33;;
18879;SDS011;9572;52.378;13.404;2024-03-08T00:57:44;56.37;;;25.37;;
18879;SDS011;9572;52.378;13.404;2024-03-08T01:00:11;60.20;;;26.73;;
18879;SDS011;9572;52.378;13.404;2024-03-08T01:02:38;57.63;;;27.57;;
18879;SDS011;9572;52.378;13.404;2024-03-08T01:05:06;46.70;;;22.03;;
18879;SDS011;9572;52.378;13.404;2024-03-08T01:07:33;36.57;;;17.40;;
18879;SDS011;9572;52.378;13.404;2024-03-08T01:10:00;35.37;;;17.07;;
18879;SDS011;9572;52.378;13.404;2024-03-08T01:12:28;32.77;;;16.20;;
18879;SDS011;9572;52.378;13.404;2024-03-08T01:14:55;35.03;;;16.90;;
18879;SDS011;9572;52.378;13.404;2024-03-08T01:17:23;32.90;;;15.87;;
18879;SDS011;9572;52.378;13.404;2024-03-08T01:19:50;36.97;;;17.47;;
18879;SDS011;9572;52.378;13.404;2024-03-08T01:22:17;33.07;;;16.17;;
18879;SDS011;9572;52.378;13.404;2024-03-08T01:24:44;35.67;;;16.23;;
18879;SDS011;9572;52.378;13.404;2024-03-08T01:27:10;32.10;;;14.60;;
18879;SDS011;9572;52.378;13.404;2024-03-08T01:29:39;33.70;;;15.90;;
18879;SDS011;9572;52.378;13.404;2024-03-08T01:32:06;34.97;;;16.40;;
18879;SDS011;9572;52.378;13.404;2024-03-08T01:34:33;36.80;;;15.93;;
18879;SDS011;9572;52.378;13.404;2024-03-08T01:37:00;33.47;;;15.53;;
18879;SDS011;9572;52.378;13.404;2024-03-08T01:39:26;27.73;;;14.10;;
18879;SDS011;9572;52.378;13.404;2024-03-08T01:41:53;30.60;;;15.60;;
18879;SDS011;9572;52.378;13.404;2024-03-08T01:44:20;31.93;;;15.13;;
18879;SDS011;9572;52.378;13.404;2024-03-08T01:46:48;30.73;;;15.53;;
18879;SDS011;9572;52.378;13.404;2024-03-08T01:49:17;30.77;;;14.73;;
18879;SDS011;9572;52.378;13.404;2024-03-08T01:51:46;32.27;;;15.87;;
18879;SDS011;9572;52.378;13.404;2024-03-08T01:54:14;34.63;;;16.30;;
18879;SDS011;9572;52.378;13.404;2024-03-08T01:56:42;34.70;;;16.47;;
18879;SDS011;9572;52.378;13.404;2024-03-08T01:59:09;37.40;;;16.87;;
18879;SDS011;9572;52.378;13.404;2024-03-08T02:01:36;32.53;;;16.97;;
18879;SDS011;9572;52.378;13.404;2024-03-08T02:04:04;35.70;;;15.93;;
18879;SDS011;9572;52.378;13.404;2024-03-08T02:06:32;33.17;;;16.63;;
18879;SDS011;9572;52.378;13.404;2024-03-08T02:08:59;33.40;;;17.00;;
18879;SDS011;9572;52.378;13.404;2024-03-08T02:11:30;36.10;;;16.30;;
18879;SDS011;9572;52.378;13.404;2024-03-08T02:13:57;35.63;;;16.53;;
18879;SDS011;9572;52.378;13.404;2024-03-08T02:16:24;39.27;;;17.67;;
18879;SDS011;9572;52.378;13.404;2024-03-08T02:18:51;34.53;;;17.57;;
18879;SDS011;9572;52.378;13.404;2024-03-08T02:21:19;43.37;;;20.93;;
18879;SDS011;9572;52.378;13.404;2024-03-08T02:23:46;37.73;;;18.37;;
18879;SDS011;9572;52.378;13.404;2024-03-08T02:26:13;34.70;;;18.13;;
18879;SDS011;9572;52.378;13.404;2024-03-08T02:28:40;37.77;;;17.50;;
18879;SDS011;9572;52.378;13.404;2024-03-08T02:31:08;39.30;;;18.50;;
18879;SDS011;9572;52.378;13.404;2024-03-08T02:33:34;38.80;;;18.80;;
18879;SDS011;9572;52.378;13.404;2024-03-08T02:36:01;36.33;;;18.00;;
18879;SDS011;9572;52.378;13.404;2024-03-08T02:38:30;34.23;;;16.27;;
18879;SDS011;9572;52.378;13.404;2024-03-08T02:40:56;33.37;;;16.17;;
18879;SDS011;9572;52.378;13.404;2024-03-08T02:43:23;28.73;;;15.00;;
18879;SDS011;9572;52.378;13.404;2024-03-08T02:45:50;28.30;;;15.27;;
18879;SDS011;9572;52.378;13.404;2024-03-08T02:48:18;31.43;;;16.30;;
18879;SDS011;9572;52.378;13.404;2024-03-08T02:50:46;30.57;;;14.90;;
18879;SDS011;9572;52.378;13.404;2024-03-08T02:53:13;33.00;;;15.13;;
18879;SDS011;9572;52.378;13.404;2024-03-08T02:55:41;43.10;;;18.30;;
18879;SDS011;9572;52.378;13.404;2024-03-08T02:58:08;37.60;;;17.23;;
18879;SDS011;9572;52.378;13.404;2024-03-08T03:00:36;32.17;;;16.07;;
18879;SDS011;9572;52.378;13.404;2024-03-08T03:03:03;34.37;;;16.63;;
18879;SDS011;9572;52.378;13.404;2024-03-08T03:05:31;40.77;;;17.40;;
18879;SDS011;9572;52.378;13.404;2024-03-08T03:07:58;32.63;;;15.77;;
18879;SDS011;9572;52.378;13.404;2024-03-08T03:10:25;39.20;;;17.63;;
18879;SDS011;9572;52.378;13.404;2024-03-08T03:12:53;31.17;;;15.00;;
18879;SDS011;9572;52.378;13.404;2024-03-08T03:15:20;33.07;;;15.43;;
18879;SDS011;9572;52.378;13.404;2024-03-08T03:17:47;32.90;;;16.33;;
18879;SDS011;9572;52.378;13.404;2024-03-08T03:20:15;36.90;;;17.00;;
18879;SDS011;9572;52.378;13.404;2024-03-08T03:22:48;34.20;;;16.27;;
18879;SDS011;9572;52.378;13.404;2024-03-08T03:25:17;35.70;;;16.17;;
18879;SDS011;9572;52.378;13.404;2024-03-08T03:27:50;37.17;;;17.43;;
18879;SDS011;9572;52.378;13.404;2024-03-08T03:30:19;32.60;;;16.50;;
18879;SDS011;9572;52.378;13.404;2024-03-08T03:32:46;38.70;;;17.40;;
18879;SDS011;9572;52.378;13.404;2024-03-08T03:35:14;39.37;;;17.57;;
18879;SDS011;9572;52.378;13.404;2024-03-08T03:37:41;38.47;;;16.33;;
18879;SDS011;9572;52.378;13.404;2024-03-08T03:40:11;36.97;;;16.67;;
18879;SDS011;9572;52.378;13.404;2024-03-08T03:42:39;40.13;;;16.90;;
18879;SDS011;9572;52.378;13.404;2024-03-08T03:45:06;34.07;;;16.30;;
18879;SDS011;9572;52.378;13.404;2024-03-08T03:47:35;33.93;;;16.43;;
18879;SDS011;9572;52.378;13.404;2024-03-08T03:50:03;33.77;;;16.20;;
18879;SDS011;9572;52.378;13.404;2024-03-08T03:52:31;32.10;;;14.80;;
18879;SDS011;9572;52.378;13.404;2024-03-08T03:54:58;38.97;;;16.70;;
18879;SDS011;9572;52.378;13.404;2024-03-08T03:57:26;32.60;;;16.23;;
18879;SDS011;9572;52.378;13.404;2024-03-08T03:59:53;35.27;;;16.23;;
18879;SDS011;9572;52.378;13.404;2024-03-08T04:02:20;34.50;;;16.60;;
18879;SDS011;9572;52.378;13.404;2024-03-08T04:04:48;34.47;;;16.53;;
18879;SDS011;9572;52.378;13.404;2024-03-08T04:07:14;34.33;;;16.57;;
18879;SDS011;9572;52.378;13.404;2024-03-08T04:09:41;38.63;;;16.47;;
18879;SDS011;9572;52.378;13.404;2024-03-08T04:12:08;34.43;;;16.03;;
18879;SDS011;9572;52.378;13.404;2024-03-08T04:14:35;35.43;;;16.83;;
18879;SDS011;9572;52.378;13.404;2024-03-08T04:17:02;35.63;;;16.77;;
18879;SDS011;9572;52.378;13.404;2024-03-08T04:19:28;36.23;;;15.93;;
18879;SDS011;9572;52.378;13.404;2024-03-08T04:21:56;28.97;;;14.63;;
18879;SDS011;9572;52.378;13.404;2024-03-08T04:24:23;33.03;;;15.73;;
18879;SDS011;9572;52.378;13.404;2024-03-08T04:26:50;35.40;;;16.40;;
18879;SDS011;9572;52.378;13.404;2024-03-08T04:29:17;37.50;;;16.70;;
18879;SDS011;9572;52.378;13.404;2024-03-08T04:31:43;34.30;;;16.43;;
18879;SDS011;9572;52.378;13.404;2024-03-08T04:34:10;32.13;;;16.60;;
18879;SDS011;9572;52.378;13.404;2024-03-08T04:36:38;36.40;;;16.57;;
18879;SDS011;9572;52.378;13.404;2024-03-08T04:39:06;40.40;;;17.73;;
18879;SDS011;9572;52.378;13.404;2024-03-08T04:41:37;34.10;;;16.50;;
18879;SDS011;9572;52.378;13.404;2024-03-08T04:44:04;38.50;;;16.77;;
18879;SDS011;9572;52.378;13.404;2024-03-08T04:46:31;36.17;;;17.10;;
18879;SDS011;9572;52.378;13.404;2024-03-08T04:49:00;37.37;;;17.73;;
18879;SDS011;9572;52.378;13.404;2024-03-08T04:51:27;34.80;;;16.27;;
18879;SDS011;9572;52.378;13.404;2024-03-08T04:53:54;35.47;;;15.87;;
18879;SDS011;9572;52.378;13.404;2024-03-08T04:56:23;33.17;;;15.37;;
18879;SDS011;9572;52.378;13.404;2024-03-08T04:58:50;33.50;;;15.13;;
18879;SDS011;9572;52.378;13.404;2024-03-08T05:01:17;28.40;;;14.27;;
18879;SDS011;9572;52.378;13.404;2024-03-08T05:03:44;32.47;;;15.53;;
18879;SDS011;9572;52.378;13.404;2024-03-08T05:06:13;32.73;;;16.53;;
18879;SDS011;9572;52.378;13.404;2024-03-08T05:08:40;37.90;;;16.63;;
18879;SDS011;9572;52.378;13.404;2024-03-08T05:11:06;35.50;;;16.47;;
18879;SDS011;9572;52.378;13.404;2024-03-08T05:13:35;36.47;;;16.97;;
18879;SDS011;9572;52.378;13.404;2024-03-08T05:16:02;36.93;;;17.10;;
18879;SDS011;9572;52.378;13.404;2024-03-08T05:18:29;34.00;;;16.63;;
18879;SDS011;9572;52.378;13.404;2024-03-08T05:20:57;36.10;;;16.40;;
18879;SDS011;9572;52.378;13.404;2024-03-08T05:23:24;38.03;;;17.27;;
18879;SDS011;9572;52.378;13.404;2024-03-08T05:25:50;41.97;;;18.97;;
18879;SDS011;9572;52.378;13.404;2024-03-08T05:28:17;42.20;;;17.93;;
18879;SDS011;9572;52.378;13.404;2024-03-08T05:30:46;39.50;;;18.10;;
18879;SDS011;9572;52.378;13.404;2024-03-08T05:33:13;39.83;;;18.03;;
18879;SDS011;9572;52.378;13.404;2024-03-08T05:35:39;32.53;;;16.57;;
18879;SDS011;9572;52.378;13.404;2024-03-08T05:38:06;34.27;;;16.20;;
18879;SDS011;9572;52.378;13.404;2024-03-08T05:40:33;41.40;;;17.73;;
18879;SDS011;9572;52.378;13.404;2024-03-08T05:43:00;37.60;;;17.43;;
18879;SDS011;9572;52.378;13.404;2024-03-08T05:45:26;38.77;;;18.63;;
18879;SDS011;9572;52.378;13.404;2024-03-08T05:47:54;42.30;;;19.23;;
18879;SDS011;9572;52.378;13.404;2024-03-08T05:50:21;40.20;;;17.47;;
18879;SDS011;9572;52.378;13.404;2024-03-08T05:52:48;40.40;;;18.57;;
18879;SDS011;9572;52.378;13.404;2024-03-08T05:55:15;40.20;;;18.53;;
18879;SDS011;9572;52.378;13.404;2024-03-08T05:57:41;37.60;;;17.20;;
18879;SDS011;9572;52.378;13.404;2024-03-08T06:00:09;42.67;;;18.97;;
18879;SDS011;9572;52.378;13.404;2024-03-08T06:02:37;42.57;;;18.37;;
18879;SDS011;9572;52.378;13.404;2024-03-08T06:05:07;41.20;;;19.57;;
18879;SDS011;9572;52.378;13.404;2024-03-08T06:07:35;43.13;;;19.23;;
18879;SDS011;9572;52.378;13.404;2024-03-08T06:10:05;43.23;;;19.47;;
18879;SDS011;9572;52.378;13.404;2024-03-08T06:12:35;41.97;;;19.67;;
18879;SDS011;9572;52.378;13.404;2024-03-08T06:15:05;43.67;;;19.67;;
18879;SDS011;9572;52.378;13.404;2024-03-08T06:17:32;46.57;;;21.57;;
18879;SDS011;9572;52.378;13.404;2024-03-08T06:19:59;42.07;;;19.90;;
18879;SDS011;9572;52.378;13.404;2024-03-08T06:22:27;39.47;;;19.33;;
18879;SDS011;9572;52.378;13.404;2024-03-08T06:24:55;41.47;;;19.37;;
18879;SDS011;9572;52.378;13.404;2024-03-08T06:27:22;44.37;;;19.63;;
18879;SDS011;9572;52.378;13.404;2024-03-08T06:29:49;40.47;;;18.73;;
18879;SDS011;9572;52.378;13.404;2024-03-08T06:32:15;48.93;;;20.87;;
18879;SDS011;9572;52.378;13.404;2024-03-08T06:34:43;40.97;;;18.97;;
18879;SDS011;9572;52.378;13.404;2024-03-08T06:37:10;46.37;;;20.50;;
18879;SDS011;9572;52.378;13.404;2024-03-08T06:39:38;45.03;;;21.23;;
18879;SDS011;9572;52.378;13.404;2024-03-08T06:42:05;42.70;;;20.87;;
18879;SDS011;9572;52.378;13.404;2024-03-08T06:44:34;43.40;;;20.77;;
18879;SDS011;9572;52.378;13.404;2024-03-08T06:47:01;46.87;;;21.50;;
18879;SDS011;9572;52.378;13.404;2024-03-08T06:49:27;45.53;;;21.40;;
18879;SDS011;9572;52.378;13.404;2024-03-08T06:51:54;47.00;;;21.33;;
18879;SDS011;9572;52.378;13.404;2024-03-08T06:54:22;45.60;;;21.17;;
18879;SDS011;9572;52.378;13.404;2024-03-08T06:56:51;42.47;;;20.90;;
18879;SDS011;9572;52.378;13.404;2024-03-08T06:59:17;42.13;;;20.50;;
18879;SDS011;9572;52.378;13.404;2024-03-08T07:01:44;49.17;;;21.13;;
18879;SDS011;9572;52.378;13.404;2024-03-08T07:04:11;43.73;;;20.27;;
18879;SDS011;9572;52.378;13.404;2024-03-08T07:06:38;44.57;;;21.07;;
18879;SDS011;9572;52.378;13.404;2024-03-08T07:09:06;42.20;;;20.07;;
18879;SDS011;9572;52.378;13.404;2024-03-08T07:11:32;43.53;;;20.57;;
18879;SDS011;9572;52.378;13.404;2024-03-08T07:14:01;41.90;;;20.30;;
18879;SDS011;9572;52.378;13.404;2024-03-08T07:16:30;45.80;;;20.63;;
18879;SDS011;9572;52.378;13.404;2024-03-08T07:18:57;41.00;;;19.63;;
18879;SDS011;9572;52.378;13.404;2024-03-08T07:21:24;39.67;;;19.10;;
18879;SDS011;9572;52.378;13.404;2024-03-08T07:23:51;44.70;;;20.87;;
18879;SDS011;9572;52.378;13.404;2024-03-08T07:26:38;47.27;;;20.57;;
18879;SDS011;9572;52.378;13.404;2024-03-08T07:29:06;37.83;;;18.53;;
18879;SDS011;9572;52.378;13.404;2024-03-08T07:31:33;42.97;;;19.17;;
18879;SDS011;9572;52.378;13.404;2024-03-08T07:34:10;38.70;;;19.33;;
18879;SDS011;9572;52.378;13.404;2024-03-08T07:36:37;42.93;;;19.33;;
18879;SDS011;9572;52.378;13.404;2024-03-08T07:39:04;39.07;;;20.27;;
18879;SDS011;9572;52.378;13.404;2024-03-08T07:41:36;40.33;;;19.87;;
18879;SDS011;9572;52.378;13.404;2024-03-08T07:44:06;43.67;;;20.27;;
18879;SDS011;9572;52.378;13.404;2024-03-08T07:46:33;38.03;;;19.00;;
18879;SDS011;9572;52.378;13.404;2024-03-08T07:49:00;43.27;;;19.40;;
18879;SDS011;9572;52.378;13.404;2024-03-08T07:51:26;41.07;;;20.07;;
18879;SDS011;9572;52.378;13.404;2024-03-08T07:53:53;43.83;;;19.97;;
18879;SDS011;9572;52.378;13.404;2024-03-08T07:56:20;38.23;;;18.70;;
18879;SDS011;9572;52.378;13.404;2024-03-08T07:58:47;39.60;;;19.30;;
18879;SDS011;9572;52.378;13.404;2024-03-08T08:01:18;58.43;;;29.27;;
18879;SDS011;9572;52.378;13.404;2024-03-08T08:03:45;44.50;;;20.67;;
18879;SDS011;9572;52.378;13.404;2024-03-08T08:06:14;41.57;;;19.73;;
18879;SDS011;9572;52.378;13.404;2024-03-08T08:08:41;40.30;;;19.37;;
18879;SDS011;9572;52.378;13.404;2024-03-08T08:11:08;40.93;;;19.60;;
18879;SDS011;9572;52.378;13.404;2024-03-08T08:13:36;37.57;;;18.63;;
18879;SDS011;9572;52.378;13.404;2024-03-08T08:16:04;38.10;;;19.17;;
18879;SDS011;9572;52.378;13.404;2024-03-08T08:18:33;35.73;;;18.07;;
18879;SDS011;9572;52.378;13.404;2024-03-08T08:21:01;40.13;;;19.23;;
18879;SDS011;9572;52.378;13.404;2024-03-08T08:23:28;39.53;;;19.07;;
18879;SDS011;9572;52.378;13.404;2024-03-08T08:25:55;41.17;;;18.73;;
18879;SDS011;9572;52.378;13.404;2024-03-08T08:28:22;36.80;;;17.50;;
18879;SDS011;9572;52.378;13.404;2024-03-08T08:30:49;39.00;;;18.83;;
18879;SDS011;9572;52.378;13.404;2024-03-08T08:33:16;38.13;;;18.63;;
18879;SDS011;9572;52.378;13.404;2024-03-08T08:35:44;40.90;;;18.60;;
18879;SDS011;9572;52.378;13.404;2024-03-08T08:38:12;31.83;;;17.37;;
18879;SDS011;9572;52.378;13.404;2024-03-08T08:40:39;38.33;;;18.07;;
18879;SDS011;9572;52.378;13.404;2024-03-08T08:43:06;35.03;;;18.47;;
18879;SDS011;9572;52.378;13.404;2024-03-08T08:45:33;38.00;;;17.80;;
18879;SDS011;9572;52.378;13.404;2024-03-08T08:48:00;37.90;;;18.30;;
18879;SDS011;9572;52.378;13.404;2024-03-08T08:50:27;39.50;;;18.73;;
18879;SDS011;9572;52.378;13.404;2024-03-08T08:52:55;38.83;;;19.03;;
18879;SDS011;9572;52.378;13.404;2024-03-08T08:55:23;40.10;;;17.27;;
18879;SDS011;9572;52.378;13.404;2024-03-08T08:57:50;34.30;;;17.40;;
18879;SDS011;9572;52.378;13.404;2024-03-08T09:00:18;33.37;;;16.77;;
18879;SDS011;9572;52.378;13.404;2024-03-08T09:02:45;32.87;;;17.20;;
18879;SDS011;9572;52.378;13.404;2024-03-08T09:05:13;32.30;;;16.57;;
18879;SDS011;9572;52.378;13.404;2024-03-08T09:07:41;34.30;;;17.40;;
18879;SDS011;9572;52.378;13.404;2024-03-08T09:10:10;37.80;;;17.40;;
18879;SDS011;9572;52.378;13.404;2024-03-08T09:12:39;31.53;;;16.40;;
18879;SDS011;9572;52.378;13.404;2024-03-08T09:15:06;33.13;;;17.30;;
18879;SDS011;9572;52.378;13.404;2024-03-08T09:17:35;39.27;;;17.83;;
18879;SDS011;9572;52.378;13.404;2024-03-08T09:20:04;35.70;;;17.57;;
18879;SDS011;9572;52.378;13.404;2024-03-08T09:22:32;33.37;;;17.17;;
18879;SDS011;9572;52.378;13.404;2024-03-08T09:24:59;35.10;;;18.03;;
18879;SDS011;9572;52.378;13.404;2024-03-08T09:27:27;34.17;;;18.00;;
18879;SDS011;9572;52.378;13.404;2024-03-08T09:29:55;34.67;;;18.47;;
18879;SDS011;9572;52.378;13.404;2024-03-08T09:32:21;34.10;;;18.03;;
18879;SDS011;9572;52.378;13.404;2024-03-08T09:34:48;38.33;;;17.60;;
18879;SDS011;9572;52.378;13.404;2024-03-08T09:37:15;31.50;;;15.93;;
18879;SDS011;9572;52.378;13.404;2024-03-08T09:39:42;32.90;;;16.80;;
18879;SDS011;9572;52.378;13.404;2024-03-08T09:42:09;27.77;;;15.30;;
18879;SDS011;9572;52.378;13.404;2024-03-08T09:44:41;33.13;;;14.80;;
18879;SDS011;9572;52.378;13.404;2024-03-08T09:47:11;35.60;;;15.97;;
18879;SDS011;9572;52.378;13.404;2024-03-08T09:49:40;27.87;;;14.20;;
18879;SDS011;9572;52.378;13.404;2024-03-08T09:52:08;28.97;;;14.30;;
18879;SDS011;9572;52.378;13.404;2024-03-08T09:54:37;32.13;;;15.63;;
18879;SDS011;9572;52.378;13.404;2024-03-08T09:57:04;29.20;;;15.50;;
18879;SDS011;9572;52.378;13.404;2024-03-08T09:59:33;34.53;;;15.87;;
18879;SDS011;9572;52.378;13.404;2024-03-08T10:02:15;27.87;;;15.30;;
18879;SDS011;9572;52.378;13.404;2024-03-08T10:04:42;31.97;;;16.17;;
18879;SDS011;9572;52.378;13.404;2024-03-08T10:07:11;32.17;;;15.77;;
18879;SDS011;9572;52.378;13.404;2024-03-08T10:09:38;27.80;;;14.60;;
18879;SDS011;9572;52.378;13.404;2024-03-08T10:12:07;29.20;;;14.97;;
18879;SDS011;9572;52.378;13.404;2024-03-08T10:14:38;28.83;;;14.20;;
18879;SDS011;9572;52.378;13.404;2024-03-08T10:17:06;28.07;;;14.20;;
18879;SDS011;9572;52.378;13.404;2024-03-08T10:19:34;27.43;;;13.70;;
18879;SDS011;9572;52.378;13.404;2024-03-08T10:22:01;27.30;;;14.43;;
18879;SDS011;9572;52.378;13.404;2024-03-08T10:24:29;29.67;;;15.07;;
18879;SDS011;9572;52.378;13.404;2024-03-08T10:26:59;32.60;;;14.73;;
18879;SDS011;9572;52.378;13.404;2024-03-08T10:29:26;28.83;;;14.37;;
18879;SDS011;9572;52.378;13.404;2024-03-08T10:31:53;27.50;;;14.27;;
18879;SDS011;9572;52.378;13.404;2024-03-08T10:34:22;26.07;;;12.90;;
18879;SDS011;9572;52.378;13.404;2024-03-08T10:36:51;28.90;;;14.03;;
18879;SDS011;9572;52.378;13.404;2024-03-08T10:39:21;26.80;;;13.67;;
18879;SDS011;9572;52.378;13.404;2024-03-08T10:41:51;26.13;;;13.00;;
18879;SDS011;9572;52.378;13.404;2024-03-08T10:44:24;26.00;;;13.83;;
18879;SDS011;9572;52.378;13.404;2024-03-08T10:47:00;23.53;;;13.30;;
18879;SDS011;9572;52.378;13.404;2024-03-08T10:49:30;25.43;;;13.73;;
18879;SDS011;9572;52.378;13.404;2024-03-08T10:52:02;27.00;;;13.13;;
18879;SDS011;9572;52.378;13.404;2024-03-08T10:54:30;25.53;;;13.63;;
18879;SDS011;9572;52.378;13.404;2024-03-08T10:56:58;24.07;;;14.00;;
18879;SDS011;9572;52.378;13.404;2024-03-08T10:59:26;24.90;;;14.43;;
18879;SDS011;9572;52.378;13.404;2024-03-08T11:01:53;26.73;;;13.30;;
18879;SDS011;9572;52.378;13.404;2024-03-08T11:04:20;29.80;;;14.60;;
18879;SDS011;9572;52.378;13.404;2024-03-08T11:06:48;25.07;;;13.80;;
18879;SDS011;9572;52.378;13.404;2024-03-08T11:09:28;24.87;;;13.97;;
18879;SDS011;9572;52.378;13.404;2024-03-08T11:14:45;25.30;;;13.50;;
18879;SDS011;9572;52.378;13.404;2024-03-08T11:17:15;27.00;;;13.47;;
18879;SDS011;9572;52.378;13.404;2024-03-08T11:19:45;26.40;;;12.97;;
18879;SDS011;9572;52.378;13.404;2024-03-08T11:22:20;26.63;;;13.20;;
18879;SDS011;9572;52.378;13.404;2024-03-08T11:24:51;22.10;;;11.63;;
18879;SDS011;9572;52.378;13.404;2024-03-08T11:27:18;21.73;;;12.93;;
18879;SDS011;9572;52.378;13.404;2024-03-08T11:29:50;24.73;;;12.90;;
18879;SDS011;9572;52.378;13.404;2024-03-08T11:32:33;22.10;;;11.87;;
18879;SDS011;9572;52.378;13.404;2024-03-08T11:35:01;21.83;;;12.00;;
18879;SDS011;9572;52.378;13.404;2024-03-08T11:37:33;24.40;;;11.50;;
18879;SDS011;9572;52.378;13.404;2024-03-08T11:40:05;20.40;;;11.43;;
18879;SDS011;9572;52.378;13.404;2024-03-08T11:42:39;20.40;;;11.23;;
18879;SDS011;9572;52.378;13.404;2024-03-08T11:45:08;22.27;;;11.73;;
18879;SDS011;9572;52.378;13.404;2024-03-08T11:47:36;27.40;;;10.30;;
18879;SDS011;9572;52.378;13.404;2024-03-08T11:50:05;35.30;;;13.57;;
18879;SDS011;9572;52.378;13.404;2024-03-08T11:52:35;19.23;;;10.33;;
18879;SDS011;9572;52.378;13.404;2024-03-08T11:55:04;19.60;;;10.47;;
18879;SDS011;9572;52.378;13.404;2024-03-08T11:57:31;21.83;;;10.43;;
18879;SDS011;9572;52.378;13.404;2024-03-08T11:59:59;19.97;;;10.03;;
18879;SDS011;9572;52.378;13.404;2024-03-08T12:02:31;16.77;;;9.33;;
18879;SDS011;9572;52.378;13.404;2024-03-08T12:05:00;17.70;;;9.70;;
18879;SDS011;9572;52.378;13.404;2024-03-08T12:07:28;18.50;;;10.20;;
18879;SDS011;9572;52.378;13.404;2024-03-08T12:10:18;19.07;;;10.70;;
18879;SDS011;9572;52.378;13.404;2024-03-08T12:12:47;19.50;;;10.10;;
18879;SDS011;9572;52.378;13.404;2024-03-08T12:15:16;16.03;;;9.93;;
18879;SDS011;9572;52.378;13.404;2024-03-08T12:17:44;19.87;;;10.50;;
18879;SDS011;9572;52.378;13.404;2024-03-08T12:20:14;18.10;;;10.13;;
18879;SDS011;9572;52.378;13.404;2024-03-08T12:22:42;16.63;;;9.33;;
18879;SDS011;9572;52.378;13.404;2024-03-08T12:25:09;15.67;;;9.33;;
18879;SDS011;9572;52.378;13.404;2024-03-08T12:27:38;20.43;;;9.03;;
18879;SDS011;9572;52.378;13.404;2024-03-08T12:30:19;19.57;;;9.67;;
18879;SDS011;9572;52.378;13.404;2024-03-08T12:32:54;19.33;;;10.30;;
18879;SDS011;9572;52.378;13.404;2024-03-08T12:35:23;20.27;;;10.20;;
18879;SDS011;9572;52.378;13.404;2024-03-08T12:37:50;18.30;;;10.47;;
18879;SDS011;9572;52.378;13.404;2024-03-08T12:40:18;19.00;;;10.07;;
18879;SDS011;9572;52.378;13.404;2024-03-08T12:42:53;17.07;;;9.43;;
18879;SDS011;9572;52.378;13.404;2024-03-08T12:45:20;18.60;;;9.77;;
18879;SDS011;9572;52.378;13.404;2024-03-08T12:47:49;23.07;;;10.13;;
18879;SDS011;9572;52.378;13.404;2024-03-08T12:50:16;18.47;;;10.00;;
18879;SDS011;9572;52.378;13.404;2024-03-08T12:52:43;18.60;;;9.70;;
18879;SDS011;9572;52.378;13.404;2024-03-08T12:55:10;14.23;;;9.10;;
18879;SDS011;9572;52.378;13.404;2024-03-08T12:57:37;15.83;;;9.53;;
18879;SDS011;9572;52.378;13.404;2024-03-08T13:00:06;16.00;;;9.27;;
18879;SDS011;9572;52.378;13.404;2024-03-08T13:02:38;17.83;;;8.60;;
18879;SDS011;9572;52.378;13.404;2024-03-08T13:05:05;15.70;;;8.90;;
18879;SDS011;9572;52.378;13.404;2024-03-08T13:07:34;15.80;;;9.13;;
18879;SDS011;9572;52.378;13.404;2024-03-08T13:10:02;16.50;;;9.47;;
18879;SDS011;9572;52.378;13.404;2024-03-08T13:12:29;19.00;;;9.07;;
18879;SDS011;9572;52.378;13.404;2024-03-08T13:14:56;16.30;;;8.90;;
18879;SDS011;9572;52.378;13.404;2024-03-08T13:17:24;16.57;;;8.63;;
18879;SDS011;9572;52.378;13.404;2024-03-08T13:19:51;18.67;;;8.77;;
18879;SDS011;9572;52.378;13.404;2024-03-08T13:22:22;16.70;;;9.00;;
18879;SDS011;9572;52.378;13.404;2024-03-08T13:24:49;23.23;;;11.60;;
18879;SDS011;9572;52.378;13.404;2024-03-08T13:27:17;15.63;;;9.10;;
18879;SDS011;9572;52.378;13.404;2024-03-08T13:29:46;16.30;;;9.17;;
18879;SDS011;9572;52.378;13.404;2024-03-08T13:32:14;14.80;;;8.53;;
18879;SDS011;9572;52.378;13.404;2024-03-08T13:34:42;15.17;;;8.83;;
18879;SDS011;9572;52.378;13.404;2024-03-08T13:37:10;16.00;;;9.17;;
18879;SDS011;9572;52.378;13.404;2024-03-08T13:39:37;15.17;;;9.13;;
18879;SDS011;9572;52.378;13.404;2024-03-08T13:42:09;15.30;;;8.60;;
18879;SDS011;9572;52.378;13.404;2024-03-08T13:44:38;14.73;;;8.37;;
18879;SDS011;9572;52.378;13.404;2024-03-08T13:47:05;20.80;;;8.53;;
18879;SDS011;9572;52.378;13.404;2024-03-08T13:49:32;16.07;;;8.77;;
18879;SDS011;9572;52.378;13.404;2024-03-08T13:52:00;16.87;;;9.23;;
18879;SDS011;9572;52.378;13.404;2024-03-08T13:54:27;14.70;;;9.00;;
18879;SDS011;9572;52.378;13.404;2024-03-08T13:56:56;14.03;;;8.43;;
18879;SDS011;9572;52.378;13.404;2024-03-08T13:59:23;17.07;;;8.23;;
18879;SDS011;9572;52.378;13.404;2024-03-08T14:01:54;14.67;;;8.70;;
18879;SDS011;9572;52.378;13.404;2024-03-08T14:04:21;14.93;;;9.07;;
18879;SDS011;9572;52.378;13.404;2024-03-08T14:06:49;13.80;;;8.27;;
18879;SDS011;9572;52.378;13.404;2024-03-08T14:09:17;15.23;;;9.13;;
18879;SDS011;9572;52.378;13.404;2024-03-08T14:11:44;17.33;;;9.20;;
18879;SDS011;9572;52.378;13.404;2024-03-08T14:14:11;14.30;;;8.97;;
18879;SDS011;9572;52.378;13.404;2024-03-08T14:16:38;16.03;;;8.30;;
18879;SDS011;9572;52.378;13.404;2024-03-08T14:19:05;17.50;;;8.90;;
18879;SDS011;9572;52.378;13.404;2024-03-08T14:21:32;19.30;;;8.87;;
18879;SDS011;9572;52.378;13.404;2024-03-08T14:23:59;16.97;;;9.13;;
18879;SDS011;9572;52.378;13.404;2024-03-08T14:26:27;17.73;;;8.30;;
18879;SDS011;9572;52.378;13.404;2024-03-08T14:28:54;15.67;;;8.83;;
18879;SDS011;9572;52.378;13.404;2024-03-08T14:31:22;14.87;;;8.27;;